Goshen, VA

6:40 AM EDT on May 29, 2015 (GMT -0400)
Ingalls | | Change Station
CLOSE
Current Station
Airport
Location: Hot Springs,
Elevation: 3793 ft
Nearby Weather Stations

Elev 3793 ft 37.95 °N, 79.83 °W | Updated 25 minutes ago

Partly Cloudy
Partly Cloudy
62 °F
Feels Like 62 °F
N
5
Wind Variable Wind from East

Today
High -- | Low -- °F
--% Chance of Precip.
Yesterday
High -- | Low -- °F
Precip. -- in
5:58 AM 8:32 PM
Waxing Gibbous, 83% visible
Pressure 30.33 in
Visibility 10.0 miles
Clouds Mostly Cloudy 11000 ft
Dew Point 62 °F
Humidity 100%
Rainfall 0.00 in
Snow Depth Not available.
UV 0 out of 12
Pollen 7.40 out of 12
Air Quality Not available.
Flu Activity No Activity
METAR KHSP 291015Z AUTO 10004KT 10SM BKN110 17/17 A3033 RMK AO2 T01680168

More Conditions Fewer Conditions

Pressure 30.33 in
Visibility 10.0 miles
Clouds Mostly Cloudy 11000 ft
Dew Point 62 °F
Humidity 100%
Rainfall 0.00 in
Snow Depth Not available.
UV 0 out of 12
Pollen 7.40 out of 12
Air Quality Not available.
Flu Activity No Activity
METAR KHSP 291015Z AUTO 10004KT 10SM BKN110 17/17 A3033 RMK AO2 T01680168

More Conditions Fewer Conditions

10-Day Weather Forecast

Almanac

Astronomy

May. 29, 2015 Rise Set
Actual Time
Civil Twilight
Nautical Twilight
Astronomical Twilight
Moon
Length of Visible Light
Length of Day
Tomorrow will be .
, % of the Moon is Illuminated

Today's Extremes

State Highs State Lows

Community

WunderPhotos

Upload Photos

1,825,233 photos uploaded!

WunderBlogs® & News

Nearby

Air Quality

  Air Quality AQ Index Pollutant
Not available.

Snow Depth

Station Depth Elevation

Earthquake Activity

City Distance Mag. Time & Date
Minimum magnitude displayed is 2.5.

Coastal Water Temperatures

Place Temperature

Stations

Nearby Weather Stations

Station Location Temp. Windchill Dew Point Humidity Wind Precip. Elev Updated Type